sensor_id;sensor_type;location;lat;lon;timestamp;P1;durP1;ratioP1;P2;durP2;ratioP2
35693;SDS011;21812;55.536;37.664;2023-06-19T00:02:16;7.78;;;2.35;;
35693;SDS011;21812;55.536;37.664;2023-06-19T00:04:42;4.57;;;2.15;;
35693;SDS011;21812;55.536;37.664;2023-06-19T00:07:07;5.80;;;2.25;;
35693;SDS011;21812;55.536;37.664;2023-06-19T00:09:33;7.65;;;2.65;;
35693;SDS011;21812;55.536;37.664;2023-06-19T00:11:59;5.30;;;2.70;;
35693;SDS011;21812;55.536;37.664;2023-06-19T00:14:25;4.55;;;2.20;;
35693;SDS011;21812;55.536;37.664;2023-06-19T00:16:51;3.10;;;2.33;;
35693;SDS011;21812;55.536;37.664;2023-06-19T00:19:17;4.53;;;2.40;;
35693;SDS011;21812;55.536;37.664;2023-06-19T00:21:43;3.08;;;1.92;;
35693;SDS011;21812;55.536;37.664;2023-06-19T00:24:09;5.57;;;2.05;;
35693;SDS011;21812;55.536;37.664;2023-06-19T00:26:36;6.20;;;2.20;;
35693;SDS011;21812;55.536;37.664;2023-06-19T00:29:01;4.25;;;2.13;;
35693;SDS011;21812;55.536;37.664;2023-06-19T00:31:28;6.60;;;2.45;;
35693;SDS011;21812;55.536;37.664;2023-06-19T00:33:53;4.97;;;2.42;;
35693;SDS011;21812;55.536;37.664;2023-06-19T00:36:20;8.40;;;2.42;;
35693;SDS011;21812;55.536;37.664;2023-06-19T00:38:47;6.28;;;2.65;;
35693;SDS011;21812;55.536;37.664;2023-06-19T00:41:15;4.35;;;2.88;;
35693;SDS011;21812;55.536;37.664;2023-06-19T00:43:42;3.40;;;2.38;;
35693;SDS011;21812;55.536;37.664;2023-06-19T00:46:08;5.28;;;2.35;;
35693;SDS011;21812;55.536;37.664;2023-06-19T00:48:35;3.78;;;2.13;;
35693;SDS011;21812;55.536;37.664;2023-06-19T00:51:01;4.82;;;2.65;;
35693;SDS011;21812;55.536;37.664;2023-06-19T00:53:27;6.13;;;2.47;;
35693;SDS011;21812;55.536;37.664;2023-06-19T00:55:54;4.88;;;2.67;;
35693;SDS011;21812;55.536;37.664;2023-06-19T00:58:23;4.28;;;2.10;;
35693;SDS011;21812;55.536;37.664;2023-06-19T01:00:50;3.80;;;2.30;;
35693;SDS011;21812;55.536;37.664;2023-06-19T01:03:16;5.70;;;3.47;;
35693;SDS011;21812;55.536;37.664;2023-06-19T01:05:42;4.70;;;2.50;;
35693;SDS011;21812;55.536;37.664;2023-06-19T01:10:42;3.70;;;2.50;;
35693;SDS011;21812;55.536;37.664;2023-06-19T01:13:12;4.38;;;2.65;;
35693;SDS011;21812;55.536;37.664;2023-06-19T01:15:42;8.90;;;3.30;;
35693;SDS011;21812;55.536;37.664;2023-06-19T01:18:09;4.80;;;2.33;;
35693;SDS011;21812;55.536;37.664;2023-06-19T01:20:38;2.97;;;2.42;;
35693;SDS011;21812;55.536;37.664;2023-06-19T01:23:07;4.82;;;2.55;;
35693;SDS011;21812;55.536;37.664;2023-06-19T01:25:34;4.70;;;2.70;;
35693;SDS011;21812;55.536;37.664;2023-06-19T01:28:04;4.68;;;2.65;;
35693;SDS011;21812;55.536;37.664;2023-06-19T01:30:33;6.32;;;3.65;;
35693;SDS011;21812;55.536;37.664;2023-06-19T01:33:09;5.72;;;2.90;;
35693;SDS011;21812;55.536;37.664;2023-06-19T01:35:42;5.55;;;3.55;;
35693;SDS011;21812;55.536;37.664;2023-06-19T01:38:09;6.78;;;3.65;;
35693;SDS011;21812;55.536;37.664;2023-06-19T01:40:37;5.45;;;3.50;;
35693;SDS011;21812;55.536;37.664;2023-06-19T01:43:04;6.15;;;3.63;;
35693;SDS011;21812;55.536;37.664;2023-06-19T01:45:32;6.75;;;3.88;;
35693;SDS011;21812;55.536;37.664;2023-06-19T01:48:00;4.72;;;3.60;;
35693;SDS011;21812;55.536;37.664;2023-06-19T01:50:26;6.70;;;3.55;;
35693;SDS011;21812;55.536;37.664;2023-06-19T01:52:51;6.47;;;3.40;;
35693;SDS011;21812;55.536;37.664;2023-06-19T01:55:19;8.75;;;4.32;;
35693;SDS011;21812;55.536;37.664;2023-06-19T01:57:45;7.38;;;4.10;;
35693;SDS011;21812;55.536;37.664;2023-06-19T02:00:12;6.38;;;3.92;;
35693;SDS011;21812;55.536;37.664;2023-06-19T02:02:42;4.85;;;3.53;;
35693;SDS011;21812;55.536;37.664;2023-06-19T02:05:08;4.88;;;4.00;;
35693;SDS011;21812;55.536;37.664;2023-06-19T02:07:34;12.68;;;4.18;;
35693;SDS011;21812;55.536;37.664;2023-06-19T02:10:00;5.55;;;4.43;;
35693;SDS011;21812;55.536;37.664;2023-06-19T02:12:26;4.32;;;3.35;;
35693;SDS011;21812;55.536;37.664;2023-06-19T02:14:52;12.38;;;5.32;;
35693;SDS011;21812;55.536;37.664;2023-06-19T02:17:18;6.55;;;4.55;;
35693;SDS011;21812;55.536;37.664;2023-06-19T02:19:44;7.20;;;3.72;;
35693;SDS011;21812;55.536;37.664;2023-06-19T02:22:30;5.45;;;3.20;;
35693;SDS011;21812;55.536;37.664;2023-06-19T02:24:55;5.72;;;3.88;;
35693;SDS011;21812;55.536;37.664;2023-06-19T02:27:21;5.72;;;3.28;;
35693;SDS011;21812;55.536;37.664;2023-06-19T02:29:47;4.78;;;3.40;;
35693;SDS011;21812;55.536;37.664;2023-06-19T02:32:12;4.40;;;3.35;;
35693;SDS011;21812;55.536;37.664;2023-06-19T02:34:38;5.63;;;3.80;;
35693;SDS011;21812;55.536;37.664;2023-06-19T02:37:05;4.82;;;3.40;;
35693;SDS011;21812;55.536;37.664;2023-06-19T02:39:31;3.97;;;3.40;;
35693;SDS011;21812;55.536;37.664;2023-06-19T02:41:58;7.45;;;3.53;;
35693;SDS011;21812;55.536;37.664;2023-06-19T02:44:28;7.65;;;4.50;;
35693;SDS011;21812;55.536;37.664;2023-06-19T02:46:54;5.97;;;3.30;;
35693;SDS011;21812;55.536;37.664;2023-06-19T02:49:20;7.15;;;3.10;;
35693;SDS011;21812;55.536;37.664;2023-06-19T02:51:45;5.90;;;3.65;;
35693;SDS011;21812;55.536;37.664;2023-06-19T02:54:11;5.88;;;3.38;;
35693;SDS011;21812;55.536;37.664;2023-06-19T02:56:37;5.78;;;3.67;;
35693;SDS011;21812;55.536;37.664;2023-06-19T02:59:04;4.97;;;3.13;;
35693;SDS011;21812;55.536;37.664;2023-06-19T03:01:30;4.18;;;3.00;;
35693;SDS011;21812;55.536;37.664;2023-06-19T03:03:56;5.60;;;3.00;;
35693;SDS011;21812;55.536;37.664;2023-06-19T03:06:21;5.90;;;2.95;;
35693;SDS011;21812;55.536;37.664;2023-06-19T03:08:48;7.32;;;3.53;;
35693;SDS011;21812;55.536;37.664;2023-06-19T03:11:13;7.75;;;3.65;;
35693;SDS011;21812;55.536;37.664;2023-06-19T03:16:10;6.28;;;3.47;;
35693;SDS011;21812;55.536;37.664;2023-06-19T03:18:36;4.20;;;2.45;;
35693;SDS011;21812;55.536;37.664;2023-06-19T03:21:02;5.57;;;2.97;;
35693;SDS011;21812;55.536;37.664;2023-06-19T03:23:27;6.35;;;3.17;;
35693;SDS011;21812;55.536;37.664;2023-06-19T03:25:53;5.80;;;3.10;;
35693;SDS011;21812;55.536;37.664;2023-06-19T03:28:19;6.57;;;3.22;;
35693;SDS011;21812;55.536;37.664;2023-06-19T03:30:45;7.63;;;3.05;;
35693;SDS011;21812;55.536;37.664;2023-06-19T03:33:13;9.52;;;4.15;;
35693;SDS011;21812;55.536;37.664;2023-06-19T03:35:44;17.08;;;5.60;;
35693;SDS011;21812;55.536;37.664;2023-06-19T03:38:19;17.15;;;4.45;;
35693;SDS011;21812;55.536;37.664;2023-06-19T03:40:47;17.58;;;4.70;;
35693;SDS011;21812;55.536;37.664;2023-06-19T03:43:13;11.13;;;4.53;;
35693;SDS011;21812;55.536;37.664;2023-06-19T03:45:39;12.35;;;3.90;;
35693;SDS011;21812;55.536;37.664;2023-06-19T03:48:05;9.30;;;3.65;;
35693;SDS011;21812;55.536;37.664;2023-06-19T03:50:31;10.20;;;3.72;;
35693;SDS011;21812;55.536;37.664;2023-06-19T03:52:56;12.15;;;4.10;;
35693;SDS011;21812;55.536;37.664;2023-06-19T03:55:22;13.63;;;3.63;;
35693;SDS011;21812;55.536;37.664;2023-06-19T03:57:49;10.63;;;3.58;;
35693;SDS011;21812;55.536;37.664;2023-06-19T04:00:15;10.25;;;4.10;;
35693;SDS011;21812;55.536;37.664;2023-06-19T04:02:43;8.57;;;4.15;;
35693;SDS011;21812;55.536;37.664;2023-06-19T04:05:13;10.43;;;3.70;;
35693;SDS011;21812;55.536;37.664;2023-06-19T04:07:41;8.57;;;3.88;;
35693;SDS011;21812;55.536;37.664;2023-06-19T04:10:07;10.75;;;3.67;;
35693;SDS011;21812;55.536;37.664;2023-06-19T04:12:33;10.32;;;3.33;;
35693;SDS011;21812;55.536;37.664;2023-06-19T04:14:58;12.95;;;4.05;;
35693;SDS011;21812;55.536;37.664;2023-06-19T04:17:24;10.55;;;4.22;;
35693;SDS011;21812;55.536;37.664;2023-06-19T04:19:50;15.05;;;4.10;;
35693;SDS011;21812;55.536;37.664;2023-06-19T04:22:18;11.68;;;4.32;;
35693;SDS011;21812;55.536;37.664;2023-06-19T04:24:44;12.02;;;4.22;;
35693;SDS011;21812;55.536;37.664;2023-06-19T04:27:10;17.90;;;4.07;;
35693;SDS011;21812;55.536;37.664;2023-06-19T04:29:36;12.90;;;5.45;;
35693;SDS011;21812;55.536;37.664;2023-06-19T04:32:02;32.92;;;5.75;;
35693;SDS011;21812;55.536;37.664;2023-06-19T04:34:40;17.60;;;3.83;;
35693;SDS011;21812;55.536;37.664;2023-06-19T04:37:08;20.33;;;4.25;;
35693;SDS011;21812;55.536;37.664;2023-06-19T04:39:33;12.20;;;5.10;;
35693;SDS011;21812;55.536;37.664;2023-06-19T04:41:59;11.07;;;3.25;;
35693;SDS011;21812;55.536;37.664;2023-06-19T04:44:25;15.20;;;4.72;;
35693;SDS011;21812;55.536;37.664;2023-06-19T04:46:51;9.15;;;3.17;;
35693;SDS011;21812;55.536;37.664;2023-06-19T04:49:29;10.75;;;3.03;;
35693;SDS011;21812;55.536;37.664;2023-06-19T04:51:56;7.53;;;3.20;;
35693;SDS011;21812;55.536;37.664;2023-06-19T04:54:22;11.02;;;4.28;;
35693;SDS011;21812;55.536;37.664;2023-06-19T04:56:48;6.70;;;2.70;;
35693;SDS011;21812;55.536;37.664;2023-06-19T04:59:14;9.63;;;3.25;;
35693;SDS011;21812;55.536;37.664;2023-06-19T05:01:43;11.45;;;2.95;;
35693;SDS011;21812;55.536;37.664;2023-06-19T05:04:10;8.40;;;2.70;;
35693;SDS011;21812;55.536;37.664;2023-06-19T05:06:38;5.80;;;2.75;;
35693;SDS011;21812;55.536;37.664;2023-06-19T05:09:04;7.28;;;4.28;;
35693;SDS011;21812;55.536;37.664;2023-06-19T05:11:30;4.95;;;2.60;;
35693;SDS011;21812;55.536;37.664;2023-06-19T05:13:56;6.43;;;2.72;;
35693;SDS011;21812;55.536;37.664;2023-06-19T05:16:22;4.72;;;2.97;;
35693;SDS011;21812;55.536;37.664;2023-06-19T05:18:48;6.35;;;2.80;;
35693;SDS011;21812;55.536;37.664;2023-06-19T05:21:14;4.55;;;2.33;;
35693;SDS011;21812;55.536;37.664;2023-06-19T05:23:40;4.15;;;2.53;;
35693;SDS011;21812;55.536;37.664;2023-06-19T05:26:06;6.93;;;2.85;;
35693;SDS011;21812;55.536;37.664;2023-06-19T05:28:32;5.18;;;2.88;;
35693;SDS011;21812;55.536;37.664;2023-06-19T05:30:57;5.22;;;2.72;;
35693;SDS011;21812;55.536;37.664;2023-06-19T05:33:23;3.42;;;2.53;;
35693;SDS011;21812;55.536;37.664;2023-06-19T05:35:49;4.45;;;2.72;;
35693;SDS011;21812;55.536;37.664;2023-06-19T05:38:20;37.10;;;4.72;;
35693;SDS011;21812;55.536;37.664;2023-06-19T05:40:47;8.43;;;2.72;;
35693;SDS011;21812;55.536;37.664;2023-06-19T05:43:12;6.15;;;2.70;;
35693;SDS011;21812;55.536;37.664;2023-06-19T05:45:38;5.63;;;2.45;;
35693;SDS011;21812;55.536;37.664;2023-06-19T05:48:04;3.88;;;2.35;;
35693;SDS011;21812;55.536;37.664;2023-06-19T05:50:30;3.75;;;2.17;;
35693;SDS011;21812;55.536;37.664;2023-06-19T05:52:56;4.68;;;2.47;;
35693;SDS011;21812;55.536;37.664;2023-06-19T05:55:22;2.42;;;1.85;;
35693;SDS011;21812;55.536;37.664;2023-06-19T05:57:50;3.70;;;2.20;;
35693;SDS011;21812;55.536;37.664;2023-06-19T06:00:16;5.03;;;2.10;;
35693;SDS011;21812;55.536;37.664;2023-06-19T06:02:42;4.15;;;1.98;;
35693;SDS011;21812;55.536;37.664;2023-06-19T06:05:08;3.58;;;2.15;;
35693;SDS011;21812;55.536;37.664;2023-06-19T06:07:35;5.35;;;2.47;;
35693;SDS011;21812;55.536;37.664;2023-06-19T06:10:01;3.97;;;1.60;;
35693;SDS011;21812;55.536;37.664;2023-06-19T06:12:33;5.00;;;1.90;;
35693;SDS011;21812;55.536;37.664;2023-06-19T06:15:01;4.00;;;1.77;;
35693;SDS011;21812;55.536;37.664;2023-06-19T06:17:31;2.85;;;1.70;;
35693;SDS011;21812;55.536;37.664;2023-06-19T06:19:57;4.97;;;2.08;;
35693;SDS011;21812;55.536;37.664;2023-06-19T06:22:22;2.75;;;1.52;;
35693;SDS011;21812;55.536;37.664;2023-06-19T06:24:48;2.95;;;1.70;;
35693;SDS011;21812;55.536;37.664;2023-06-19T06:27:14;4.43;;;1.55;;
35693;SDS011;21812;55.536;37.664;2023-06-19T06:29:39;4.55;;;1.65;;
35693;SDS011;21812;55.536;37.664;2023-06-19T06:32:06;3.65;;;1.25;;
35693;SDS011;21812;55.536;37.664;2023-06-19T06:34:35;4.85;;;1.88;;
35693;SDS011;21812;55.536;37.664;2023-06-19T06:37:01;6.35;;;1.80;;
35693;SDS011;21812;55.536;37.664;2023-06-19T06:39:27;7.90;;;2.28;;
35693;SDS011;21812;55.536;37.664;2023-06-19T06:41:53;7.22;;;2.35;;
35693;SDS011;21812;55.536;37.664;2023-06-19T06:44:19;5.75;;;2.00;;
35693;SDS011;21812;55.536;37.664;2023-06-19T06:46:45;7.13;;;2.05;;
35693;SDS011;21812;55.536;37.664;2023-06-19T06:49:11;6.70;;;2.05;;
35693;SDS011;21812;55.536;37.664;2023-06-19T06:51:37;5.90;;;1.70;;
35693;SDS011;21812;55.536;37.664;2023-06-19T06:54:03;3.50;;;1.77;;
35693;SDS011;21812;55.536;37.664;2023-06-19T06:56:29;13.57;;;2.53;;
35693;SDS011;21812;55.536;37.664;2023-06-19T06:58:55;7.63;;;2.13;;
35693;SDS011;21812;55.536;37.664;2023-06-19T07:01:21;15.48;;;3.60;;
35693;SDS011;21812;55.536;37.664;2023-06-19T07:03:46;19.02;;;2.85;;
35693;SDS011;21812;55.536;37.664;2023-06-19T07:06:12;19.33;;;3.08;;
35693;SDS011;21812;55.536;37.664;2023-06-19T07:08:38;6.07;;;2.50;;
35693;SDS011;21812;55.536;37.664;2023-06-19T07:11:06;4.28;;;2.20;;
35693;SDS011;21812;55.536;37.664;2023-06-19T07:13:32;5.80;;;2.28;;
35693;SDS011;21812;55.536;37.664;2023-06-19T07:15:58;7.47;;;2.35;;
35693;SDS011;21812;55.536;37.664;2023-06-19T07:18:27;4.55;;;2.08;;
35693;SDS011;21812;55.536;37.664;2023-06-19T07:20:53;7.07;;;1.77;;
35693;SDS011;21812;55.536;37.664;2023-06-19T07:23:19;4.63;;;2.78;;
35693;SDS011;21812;55.536;37.664;2023-06-19T07:25:48;3.97;;;2.20;;
35693;SDS011;21812;55.536;37.664;2023-06-19T07:28:14;5.28;;;2.35;;
35693;SDS011;21812;55.536;37.664;2023-06-19T07:30:40;5.57;;;2.03;;
35693;SDS011;21812;55.536;37.664;2023-06-19T07:33:06;6.30;;;2.30;;
35693;SDS011;21812;55.536;37.664;2023-06-19T07:35:31;6.35;;;2.40;;
35693;SDS011;21812;55.536;37.664;2023-06-19T07:37:57;5.93;;;2.35;;
35693;SDS011;21812;55.536;37.664;2023-06-19T07:40:23;6.88;;;2.55;;
35693;SDS011;21812;55.536;37.664;2023-06-19T07:42:48;5.07;;;2.13;;
35693;SDS011;21812;55.536;37.664;2023-06-19T07:45:14;11.85;;;2.00;;
35693;SDS011;21812;55.536;37.664;2023-06-19T07:47:40;8.27;;;2.83;;
35693;SDS011;21812;55.536;37.664;2023-06-19T07:50:06;6.43;;;3.10;;
35693;SDS011;21812;55.536;37.664;2023-06-19T07:52:32;5.60;;;2.25;;
35693;SDS011;21812;55.536;37.664;2023-06-19T07:54:58;4.50;;;2.50;;
35693;SDS011;21812;55.536;37.664;2023-06-19T07:57:25;17.65;;;3.15;;
35693;SDS011;21812;55.536;37.664;2023-06-19T07:59:52;5.38;;;2.15;;
35693;SDS011;21812;55.536;37.664;2023-06-19T08:02:18;4.57;;;2.05;;
35693;SDS011;21812;55.536;37.664;2023-06-19T08:04:45;3.55;;;2.13;;
35693;SDS011;21812;55.536;37.664;2023-06-19T08:07:13;5.10;;;2.30;;
35693;SDS011;21812;55.536;37.664;2023-06-19T08:09:39;5.88;;;2.88;;
35693;SDS011;21812;55.536;37.664;2023-06-19T08:12:05;3.92;;;1.98;;
35693;SDS011;21812;55.536;37.664;2023-06-19T08:14:31;9.02;;;2.75;;
35693;SDS011;21812;55.536;37.664;2023-06-19T08:16:57;3.33;;;1.80;;
35693;SDS011;21812;55.536;37.664;2023-06-19T08:19:22;7.70;;;2.20;;
35693;SDS011;21812;55.536;37.664;2023-06-19T08:21:48;5.35;;;2.80;;
35693;SDS011;21812;55.536;37.664;2023-06-19T08:24:14;7.05;;;2.42;;
35693;SDS011;21812;55.536;37.664;2023-06-19T08:26:39;3.22;;;2.20;;
35693;SDS011;21812;55.536;37.664;2023-06-19T08:29:05;4.35;;;2.60;;
35693;SDS011;21812;55.536;37.664;2023-06-19T08:31:31;4.57;;;2.08;;
35693;SDS011;21812;55.536;37.664;2023-06-19T08:33:57;2.83;;;1.88;;
35693;SDS011;21812;55.536;37.664;2023-06-19T08:36:23;4.60;;;2.15;;
35693;SDS011;21812;55.536;37.664;2023-06-19T08:38:49;4.90;;;2.05;;
35693;SDS011;21812;55.536;37.664;2023-06-19T08:41:17;4.30;;;2.25;;
35693;SDS011;21812;55.536;37.664;2023-06-19T08:43:45;5.07;;;2.47;;
35693;SDS011;21812;55.536;37.664;2023-06-19T08:46:14;4.70;;;2.47;;
35693;SDS011;21812;55.536;37.664;2023-06-19T08:48:42;4.00;;;2.08;;
35693;SDS011;21812;55.536;37.664;2023-06-19T08:51:12;3.90;;;2.05;;
35693;SDS011;21812;55.536;37.664;2023-06-19T08:53:49;5.25;;;2.53;;
35693;SDS011;21812;55.536;37.664;2023-06-19T08:56:20;4.85;;;2.40;;
35693;SDS011;21812;55.536;37.664;2023-06-19T08:58:46;10.02;;;2.33;;
35693;SDS011;21812;55.536;37.664;2023-06-19T09:01:13;4.82;;;2.25;;
35693;SDS011;21812;55.536;37.664;2023-06-19T09:03:42;5.22;;;2.05;;
35693;SDS011;21812;55.536;37.664;2023-06-19T09:06:09;10.25;;;2.28;;
35693;SDS011;21812;55.536;37.664;2023-06-19T09:08:36;3.63;;;1.98;;
35693;SDS011;21812;55.536;37.664;2023-06-19T09:11:03;4.25;;;1.92;;
35693;SDS011;21812;55.536;37.664;2023-06-19T09:13:30;4.25;;;2.25;;
35693;SDS011;21812;55.536;37.664;2023-06-19T09:18:32;3.70;;;2.67;;
35693;SDS011;21812;55.536;37.664;2023-06-19T09:21:16;4.30;;;1.75;;
35693;SDS011;21812;55.536;37.664;2023-06-19T09:23:43;10.55;;;2.25;;
35693;SDS011;21812;55.536;37.664;2023-06-19T09:26:13;6.00;;;2.00;;
35693;SDS011;21812;55.536;37.664;2023-06-19T09:28:40;5.55;;;2.38;;
35693;SDS011;21812;55.536;37.664;2023-06-19T09:31:10;4.90;;;2.30;;
35693;SDS011;21812;55.536;37.664;2023-06-19T09:33:36;7.82;;;2.65;;
35693;SDS011;21812;55.536;37.664;2023-06-19T09:36:03;13.95;;;3.08;;
35693;SDS011;21812;55.536;37.664;2023-06-19T09:38:34;6.55;;;2.03;;
35693;SDS011;21812;55.536;37.664;2023-06-19T09:41:05;5.97;;;2.53;;
35693;SDS011;21812;55.536;37.664;2023-06-19T09:43:38;4.75;;;2.05;;
35693;SDS011;21812;55.536;37.664;2023-06-19T09:46:07;4.72;;;2.15;;
35693;SDS011;21812;55.536;37.664;2023-06-19T09:48:35;7.25;;;2.97;;
35693;SDS011;21812;55.536;37.664;2023-06-19T09:51:17;8.65;;;3.47;;
35693;SDS011;21812;55.536;37.664;2023-06-19T09:53:44;6.85;;;3.25;;
35693;SDS011;21812;55.536;37.664;2023-06-19T09:56:14;14.95;;;3.28;;
35693;SDS011;21812;55.536;37.664;2023-06-19T09:58:44;8.35;;;2.95;;
35693;SDS011;21812;55.536;37.664;2023-06-19T10:01:11;7.85;;;3.20;;
35693;SDS011;21812;55.536;37.664;2023-06-19T10:03:38;7.57;;;3.53;;
35693;SDS011;21812;55.536;37.664;2023-06-19T10:06:05;6.22;;;3.00;;
35693;SDS011;21812;55.536;37.664;2023-06-19T10:08:41;11.13;;;5.47;;
35693;SDS011;21812;55.536;37.664;2023-06-19T10:11:08;10.10;;;4.22;;
35693;SDS011;21812;55.536;37.664;2023-06-19T10:13:34;8.75;;;3.28;;
35693;SDS011;21812;55.536;37.664;2023-06-19T10:16:06;15.15;;;3.25;;
35693;SDS011;21812;55.536;37.664;2023-06-19T10:18:47;4.57;;;2.58;;
35693;SDS011;21812;55.536;37.664;2023-06-19T10:21:17;6.70;;;3.10;;
35693;SDS011;21812;55.536;37.664;2023-06-19T10:23:43;10.50;;;3.38;;
35693;SDS011;21812;55.536;37.664;2023-06-19T10:26:19;14.88;;;3.72;;
35693;SDS011;21812;55.536;37.664;2023-06-19T10:28:46;7.47;;;3.47;;
35693;SDS011;21812;55.536;37.664;2023-06-19T10:31:15;8.77;;;2.95;;
35693;SDS011;21812;55.536;37.664;2023-06-19T10:33:40;7.20;;;3.30;;
35693;SDS011;21812;55.536;37.664;2023-06-19T10:36:16;4.63;;;3.13;;
35693;SDS011;21812;55.536;37.664;2023-06-19T10:38:44;5.28;;;2.65;;
35693;SDS011;21812;55.536;37.664;2023-06-19T10:41:15;6.18;;;2.80;;
35693;SDS011;21812;55.536;37.664;2023-06-19T10:43:52;6.60;;;2.60;;
35693;SDS011;21812;55.536;37.664;2023-06-19T10:46:30;4.35;;;2.25;;
35693;SDS011;21812;55.536;37.664;2023-06-19T10:48:57;5.95;;;2.90;;
35693;SDS011;21812;55.536;37.664;2023-06-19T10:51:27;5.45;;;2.60;;
35693;SDS011;21812;55.536;37.664;2023-06-19T10:53:54;8.30;;;2.55;;
35693;SDS011;21812;55.536;37.664;2023-06-19T10:56:21;4.38;;;2.55;;
35693;SDS011;21812;55.536;37.664;2023-06-19T10:58:48;3.80;;;2.45;;
35693;SDS011;21812;55.536;37.664;2023-06-19T11:01:14;4.55;;;2.28;;
35693;SDS011;21812;55.536;37.664;2023-06-19T11:03:39;4.97;;;2.33;;
35693;SDS011;21812;55.536;37.664;2023-06-19T11:06:05;7.35;;;2.33;;
35693;SDS011;21812;55.536;37.664;2023-06-19T11:08:31;6.38;;;2.55;;
35693;SDS011;21812;55.536;37.664;2023-06-19T11:10:57;7.82;;;2.80;;
35693;SDS011;21812;55.536;37.664;2023-06-19T11:13:22;6.03;;;2.72;;
35693;SDS011;21812;55.536;37.664;2023-06-19T11:15:48;5.30;;;2.58;;
35693;SDS011;21812;55.536;37.664;2023-06-19T11:18:15;5.25;;;2.47;;
35693;SDS011;21812;55.536;37.664;2023-06-19T11:20:46;4.65;;;2.20;;
35693;SDS011;21812;55.536;37.664;2023-06-19T11:23:37;4.78;;;2.05;;
35693;SDS011;21812;55.536;37.664;2023-06-19T11:26:05;6.13;;;2.10;;
35693;SDS011;21812;55.536;37.664;2023-06-19T11:28:31;8.32;;;2.55;;
35693;SDS011;21812;55.536;37.664;2023-06-19T11:31:01;2.88;;;2.28;;
35693;SDS011;21812;55.536;37.664;2023-06-19T11:33:28;8.52;;;2.30;;
35693;SDS011;21812;55.536;37.664;2023-06-19T11:35:59;5.25;;;2.40;;
35693;SDS011;21812;55.536;37.664;2023-06-19T11:38:26;5.18;;;2.03;;
35693;SDS011;21812;55.536;37.664;2023-06-19T11:40:54;6.47;;;2.33;;
35693;SDS011;21812;55.536;37.664;2023-06-19T11:43:26;5.38;;;2.50;;
35693;SDS011;21812;55.536;37.664;2023-06-19T11:45:53;3.83;;;2.22;;
35693;SDS011;21812;55.536;37.664;2023-06-19T11:48:28;8.38;;;2.22;;
35693;SDS011;21812;55.536;37.664;2023-06-19T11:50:54;8.80;;;2.33;;
35693;SDS011;21812;55.536;37.664;2023-06-19T11:53:20;7.40;;;2.50;;
35693;SDS011;21812;55.536;37.664;2023-06-19T11:55:47;7.35;;;2.47;;
35693;SDS011;21812;55.536;37.664;2023-06-19T11:58:14;7.40;;;2.53;;
35693;SDS011;21812;55.536;37.664;2023-06-19T12:00:46;3.40;;;2.45;;
35693;SDS011;21812;55.536;37.664;2023-06-19T12:03:12;5.15;;;2.28;;
35693;SDS011;21812;55.536;37.664;2023-06-19T12:05:38;4.05;;;2.10;;
35693;SDS011;21812;55.536;37.664;2023-06-19T12:08:04;7.72;;;2.40;;
35693;SDS011;21812;55.536;37.664;2023-06-19T12:10:32;11.02;;;2.33;;
35693;SDS011;21812;55.536;37.664;2023-06-19T12:12:59;6.50;;;2.58;;
35693;SDS011;21812;55.536;37.664;2023-06-19T12:15:25;7.60;;;2.85;;
35693;SDS011;21812;55.536;37.664;2023-06-19T12:17:52;6.57;;;2.70;;
35693;SDS011;21812;55.536;37.664;2023-06-19T12:20:18;6.07;;;2.30;;
35693;SDS011;21812;55.536;37.664;2023-06-19T12:22:44;9.77;;;2.55;;
35693;SDS011;21812;55.536;37.664;2023-06-19T12:25:09;4.70;;;2.00;;
35693;SDS011;21812;55.536;37.664;2023-06-19T12:27:37;6.43;;;2.40;;
35693;SDS011;21812;55.536;37.664;2023-06-19T12:30:04;4.93;;;2.47;;
35693;SDS011;21812;55.536;37.664;2023-06-19T12:32:34;4.47;;;2.35;;
35693;SDS011;21812;55.536;37.664;2023-06-19T12:35:01;9.23;;;2.20;;
35693;SDS011;21812;55.536;37.664;2023-06-19T12:37:33;2.70;;;2.05;;
35693;SDS011;21812;55.536;37.664;2023-06-19T12:39:58;8.50;;;2.15;;
35693;SDS011;21812;55.536;37.664;2023-06-19T12:42:24;4.18;;;2.20;;
35693;SDS011;21812;55.536;37.664;2023-06-19T12:44:50;13.75;;;2.42;;
35693;SDS011;21812;55.536;37.664;2023-06-19T12:47:16;5.97;;;2.67;;
35693;SDS011;21812;55.536;37.664;2023-06-19T12:49:43;4.72;;;2.55;;
35693;SDS011;21812;55.536;37.664;2023-06-19T12:52:09;3.95;;;2.63;;
35693;SDS011;21812;55.536;37.664;2023-06-19T12:54:36;8.82;;;2.45;;
35693;SDS011;21812;55.536;37.664;2023-06-19T12:57:02;4.38;;;1.90;;
35693;SDS011;21812;55.536;37.664;2023-06-19T12:59:28;3.88;;;2.42;;
35693;SDS011;21812;55.536;37.664;2023-06-19T13:01:54;6.68;;;2.28;;
35693;SDS011;21812;55.536;37.664;2023-06-19T13:04:20;3.55;;;2.30;;
35693;SDS011;21812;55.536;37.664;2023-06-19T13:06:46;3.78;;;1.90;;
35693;SDS011;21812;55.536;37.664;2023-06-19T13:09:11;7.80;;;2.05;;
35693;SDS011;21812;55.536;37.664;2023-06-19T13:11:37;6.85;;;2.53;;
35693;SDS011;21812;55.536;37.664;2023-06-19T13:14:04;4.60;;;2.20;;
35693;SDS011;21812;55.536;37.664;2023-06-19T13:16:30;5.03;;;1.85;;
35693;SDS011;21812;55.536;37.664;2023-06-19T13:18:57;2.25;;;1.88;;
35693;SDS011;21812;55.536;37.664;2023-06-19T13:21:23;8.00;;;2.28;;
35693;SDS011;21812;55.536;37.664;2023-06-19T13:23:49;4.00;;;2.38;;
35693;SDS011;21812;55.536;37.664;2023-06-19T13:26:15;8.95;;;2.22;;
35693;SDS011;21812;55.536;37.664;2023-06-19T13:28:40;6.03;;;2.30;;
35693;SDS011;21812;55.536;37.664;2023-06-19T13:31:06;3.28;;;2.35;;
35693;SDS011;21812;55.536;37.664;2023-06-19T13:33:32;3.20;;;2.30;;
35693;SDS011;21812;55.536;37.664;2023-06-19T13:35:57;5.72;;;2.33;;
35693;SDS011;21812;55.536;37.664;2023-06-19T13:38:23;3.53;;;2.17;;
35693;SDS011;21812;55.536;37.664;2023-06-19T13:40:49;5.28;;;2.67;;
35693;SDS011;21812;55.536;37.664;2023-06-19T13:43:15;7.45;;;2.97;;
35693;SDS011;21812;55.536;37.664;2023-06-19T13:45:42;4.43;;;2.40;;
35693;SDS011;21812;55.536;37.664;2023-06-19T13:48:08;3.85;;;2.58;;
35693;SDS011;21812;55.536;37.664;2023-06-19T13:50:34;5.63;;;2.25;;
35693;SDS011;21812;55.536;37.664;2023-06-19T13:53:00;4.70;;;2.67;;
35693;SDS011;21812;55.536;37.664;2023-06-19T13:55:27;6.93;;;2.30;;
35693;SDS011;21812;55.536;37.664;2023-06-19T13:57:53;10.48;;;2.22;;
35693;SDS011;21812;55.536;37.664;2023-06-19T14:00:19;6.28;;;2.10;;
35693;SDS011;21812;55.536;37.664;2023-06-19T14:02:45;4.18;;;2.03;;
35693;SDS011;21812;55.536;37.664;2023-06-19T14:05:11;9.07;;;2.08;;
35693;SDS011;21812;55.536;37.664;2023-06-19T14:07:40;5.45;;;2.30;;
35693;SDS011;21812;55.536;37.664;2023-06-19T14:10:07;3.90;;;2.00;;
35693;SDS011;21812;55.536;37.664;2023-06-19T14:12:33;3.85;;;2.10;;
35693;SDS011;21812;55.536;37.664;2023-06-19T14:14:59;3.78;;;2.47;;
35693;SDS011;21812;55.536;37.664;2023-06-19T14:17:25;6.85;;;2.78;;
35693;SDS011;21812;55.536;37.664;2023-06-19T14:19:51;3.35;;;1.92;;
35693;SDS011;21812;55.536;37.664;2023-06-19T14:22:17;5.10;;;2.25;;
35693;SDS011;21812;55.536;37.664;2023-06-19T14:24:43;3.20;;;1.33;;
35693;SDS011;21812;55.536;37.664;2023-06-19T14:27:09;9.20;;;1.70;;
35693;SDS011;21812;55.536;37.664;2023-06-19T14:29:35;2.40;;;1.48;;
35693;SDS011;21812;55.536;37.664;2023-06-19T14:32:01;2.25;;;1.23;;
35693;SDS011;21812;55.536;37.664;2023-06-19T14:34:28;2.45;;;1.40;;
35693;SDS011;21812;55.536;37.664;2023-06-19T14:36:54;6.13;;;2.00;;
35693;SDS011;21812;55.536;37.664;2023-06-19T14:39:20;5.80;;;1.58;;
35693;SDS011;21812;55.536;37.664;2023-06-19T14:41:45;4.38;;;1.95;;